This is the latest recevied weather packets stored in our database for station/object G4ZMG. If no packets are shown the sender has not sent any weather packets the latest 10 day(s).
| Time | Temp. | Humidity | Pressure | Rain* | Wind** | Luminosity | Snow |
|---|---|---|---|---|---|---|---|
| 1777746638 | 11.67° C | 90% | 1009.9 hPa | 2.54 mm | - | 5 W/m² | - |
| 1777746032 | 12.22° C | 90% | 1009.9 hPa | 3.3 mm | - | 21 W/m² | - |
| 1777745421 | 12.22° C | 89% | 1010 hPa | 3.81 mm | - | 19 W/m² | - |
| 1777744812 | 12.78° C | 88% | 1010.2 hPa | 4.32 mm | - | 25 W/m² | - |
| 1777743033 | 13.33° C | 86% | 1011 hPa | 4.32 mm | - | 39 W/m² | - |
| 1777742428 | 13.33° C | 85% | 1011.2 hPa | 3.81 mm | - | 25 W/m² | - |
| 1777741810 | 13.89° C | 83% | 1011.2 hPa | 3.3 mm | - | 40 W/m² | - |
| 1777741237 | 14.44° C | 81% | 1011.3 hPa | 2.29 mm | - | 30 W/m² | - |
| 1777739450 | 15.56° C | 73% | 1011.4 hPa | 0.51 mm | - | 33 W/m² | - |
| 1777738836 | 16.11° C | 70% | 1011.4 hPa | 0.25 mm | - | 44 W/m² | - |
| 1777738230 | 16.11° C | 67% | 1011.2 hPa | 0 mm | - | 47 W/m² | - |
| 1777737024 | 16.67° C | 66% | 1011.1 hPa | 0 mm | - | 121 W/m² | - |
| 1777736408 | 16.67° C | 63% | 1011.2 hPa | 0 mm | - | 156 W/m² | - |
| 1777735803 | 16.67° C | 62% | 1011.3 hPa | 0 mm | - | 169 W/m² | - |
| 1777735245 | 16.67° C | 63% | 1011.5 hPa | 0 mm | - | 211 W/m² | - |
| 1777734640 | 16.67° C | 64% | 1011.7 hPa | 0 mm | - | 214 W/m² | - |
| 1777734047 | 16.67° C | 64% | 1011.8 hPa | 0 mm | - | 214 W/m² | - |
| 1777733443 | 16.67° C | 64% | 1012 hPa | 0 mm | - | 204 W/m² | - |
| 1777732838 | 16.67° C | 65% | 1012.2 hPa | 0 mm | - | 218 W/m² | - |
| 1777732232 | 16.67° C | 63% | 1012.4 hPa | 0 mm | - | 237 W/m² | - |
| 1777731626 | 16.67° C | 66% | 1012.7 hPa | 0 mm | - | 257 W/m² | - |
| 1777731007 | 16.67° C | 66% | 1012.8 hPa | 0 mm | - | 262 W/m² | - |
| 1777730426 | 17.22° C | 66% | 1012.9 hPa | 0 mm | - | 302 W/m² | - |
| 1777729812 | 16.67° C | 65% | 1013.2 hPa | 0 mm | - | 383 W/m² | - |
| 1777729204 | 16.67° C | 67% | 1013.3 hPa | 0 mm | - | 392 W/m² | - |
* Rain latest hour (hover to see other rain measurements)
** Current wind speed in m/s (hover to see current wind gust speed)